createdAt,value
2018-12-22T00:01:25.734Z,6.70
2018-12-22T00:03:54.063Z,6.70
2018-12-22T00:06:22.405Z,6.70
2018-12-22T00:08:50.929Z,6.70
2018-12-22T00:11:19.415Z,6.70
2018-12-22T00:13:47.753Z,6.70
2018-12-22T00:16:16.095Z,6.70
2018-12-22T00:18:44.437Z,6.70
2018-12-22T00:21:12.792Z,6.60
2018-12-22T00:23:41.138Z,6.60
2018-12-22T00:26:09.480Z,6.60
2018-12-22T00:28:37.843Z,6.60
2018-12-22T00:31:06.181Z,6.60
2018-12-22T00:33:34.623Z,6.60
2018-12-22T00:36:02.956Z,6.60
2018-12-22T00:38:31.297Z,6.60
2018-12-22T00:40:59.956Z,6.60
2018-12-22T00:43:28.283Z,6.60
2018-12-22T00:45:56.632Z,6.60
2018-12-22T00:48:25.093Z,6.60
2018-12-22T00:50:53.404Z,6.60
2018-12-22T00:53:21.738Z,6.60
2018-12-22T00:55:50.228Z,6.60
2018-12-22T00:58:18.579Z,6.60
2018-12-22T01:00:46.986Z,6.60
2018-12-22T01:03:15.339Z,6.60
2018-12-22T01:05:43.684Z,6.60
2018-12-22T01:08:12.018Z,6.60
2018-12-22T01:10:40.348Z,6.60
2018-12-22T01:13:13.725Z,6.50
2018-12-22T01:15:42.534Z,6.50
2018-12-22T01:18:11.167Z,6.60
2018-12-22T01:20:39.652Z,6.50
2018-12-22T01:23:07.997Z,6.50
2018-12-22T01:25:36.332Z,6.50
2018-12-22T01:28:04.678Z,6.50
2018-12-22T01:30:33.063Z,6.50
2018-12-22T01:33:01.443Z,6.50
2018-12-22T01:35:29.786Z,6.50
2018-12-22T01:37:58.131Z,6.50
2018-12-22T01:40:26.531Z,6.50
2018-12-22T01:42:55.054Z,6.40
2018-12-22T01:45:23.388Z,6.50
2018-12-22T01:47:51.809Z,6.40
2018-12-22T01:50:20.154Z,6.40
2018-12-22T01:52:48.489Z,6.40
2018-12-22T01:55:16.839Z,6.40
2018-12-22T01:57:45.187Z,6.40
2018-12-22T02:00:13.701Z,6.40
2018-12-22T02:02:42.040Z,6.30
2018-12-22T02:05:10.375Z,6.30
2018-12-22T02:07:38.705Z,6.30
2018-12-22T02:10:07.056Z,6.30
2018-12-22T02:12:35.392Z,6.30
2018-12-22T02:15:04.550Z,6.30
2018-12-22T02:17:32.882Z,6.30
2018-12-22T02:20:01.242Z,6.30
2018-12-22T02:22:29.578Z,6.30
2018-12-22T02:24:57.906Z,6.30
2018-12-22T02:27:26.250Z,6.30
2018-12-22T02:29:54.596Z,6.30
2018-12-22T02:32:22.967Z,6.30
2018-12-22T02:34:51.433Z,6.30
2018-12-22T02:37:19.865Z,6.30
2018-12-22T02:39:48.203Z,6.30
2018-12-22T02:42:16.658Z,6.30
2018-12-22T02:44:44.995Z,6.30
2018-12-22T02:47:13.333Z,6.30
2018-12-22T02:49:41.682Z,6.30
2018-12-22T02:52:10.012Z,6.30
2018-12-22T02:54:38.449Z,6.30
2018-12-22T02:57:06.788Z,6.30
2018-12-22T02:59:35.239Z,6.30
2018-12-22T03:02:03.784Z,6.30
2018-12-22T03:04:32.117Z,6.30
2018-12-22T03:07:00.855Z,6.30
2018-12-22T03:09:29.191Z,6.20
2018-12-22T03:11:57.571Z,6.20
2018-12-22T03:14:25.907Z,6.20
2018-12-22T03:16:54.438Z,6.20
2018-12-22T03:19:22.767Z,6.20
2018-12-22T03:21:51.119Z,6.20
2018-12-22T03:24:19.465Z,6.20
2018-12-22T03:26:47.894Z,6.20
2018-12-22T03:29:16.362Z,6.20
2018-12-22T03:31:44.801Z,6.20
2018-12-22T03:34:13.150Z,6.20
2018-12-22T03:36:41.507Z,6.20
2018-12-22T03:39:10.040Z,6.20
2018-12-22T03:41:38.567Z,6.20
2018-12-22T03:44:07.026Z,6.20
2018-12-22T03:46:35.384Z,6.20
2018-12-22T03:49:03.748Z,6.20
2018-12-22T03:51:32.097Z,6.10
2018-12-22T03:54:00.447Z,6.10
2018-12-22T03:56:28.789Z,6.10
2018-12-22T03:58:57.132Z,6.10
2018-12-22T04:01:25.504Z,6.10
2018-12-22T04:03:53.960Z,6.10
2018-12-22T04:06:22.534Z,6.10
2018-12-22T04:08:50.985Z,6.10
2018-12-22T04:11:19.340Z,6.10
2018-12-22T04:13:48.238Z,6.10
2018-12-22T04:16:16.586Z,6.10
2018-12-22T04:18:44.967Z,6.00
2018-12-22T04:21:13.325Z,6.00
2018-12-22T04:23:41.733Z,6.00
2018-12-22T04:26:10.087Z,6.00
2018-12-22T04:28:38.433Z,5.90
2018-12-22T04:31:06.779Z,5.90
2018-12-22T04:33:35.174Z,5.90
2018-12-22T04:36:03.740Z,5.80
2018-12-22T04:38:32.098Z,5.80
2018-12-22T04:41:00.447Z,5.80
2018-12-22T04:43:28.789Z,5.80
2018-12-22T04:45:57.133Z,5.80
2018-12-22T04:48:25.470Z,5.80
2018-12-22T04:50:53.812Z,5.80
2018-12-22T04:53:22.153Z,5.80
2018-12-22T04:55:50.495Z,5.80
2018-12-22T04:58:18.851Z,5.80
2018-12-22T05:00:47.190Z,5.80
2018-12-22T05:03:15.544Z,5.80
2018-12-22T05:05:45.864Z,5.80
2018-12-22T05:08:14.205Z,5.80
2018-12-22T05:10:42.554Z,5.80
2018-12-22T05:13:10.914Z,5.80
2018-12-22T05:15:39.268Z,5.80
2018-12-22T05:18:07.614Z,5.70
2018-12-22T05:20:35.965Z,5.80
2018-12-22T05:23:04.316Z,5.80
2018-12-22T05:25:32.658Z,5.80
2018-12-22T05:28:01.104Z,5.70
2018-12-22T05:30:29.446Z,5.70
2018-12-22T05:32:57.791Z,5.70
2018-12-22T05:35:26.135Z,5.70
2018-12-22T05:37:54.517Z,5.70
2018-12-22T05:40:22.858Z,5.70
2018-12-22T05:42:51.250Z,5.70
2018-12-22T05:45:21.265Z,5.70
2018-12-22T05:47:50.509Z,5.70
2018-12-22T05:50:19.187Z,5.70
2018-12-22T05:52:47.858Z,5.70
2018-12-22T05:55:16.319Z,5.70
2018-12-22T05:57:44.680Z,5.70
2018-12-22T06:00:13.130Z,5.70
2018-12-22T06:02:41.528Z,5.70
2018-12-22T06:05:11.189Z,5.70
2018-12-22T06:07:39.746Z,5.70
2018-12-22T06:10:08.695Z,5.70
2018-12-22T06:12:37.361Z,5.70
2018-12-22T06:15:06.455Z,5.70
2018-12-22T06:17:34.853Z,5.70
2018-12-22T06:20:03.789Z,5.70
2018-12-22T06:22:32.185Z,5.70
2018-12-22T06:25:00.529Z,5.60
2018-12-22T06:27:28.990Z,5.70
2018-12-22T06:29:57.713Z,5.60
2018-12-22T06:32:26.055Z,5.60
2018-12-22T06:34:54.394Z,5.70
2018-12-22T06:37:22.742Z,5.60
2018-12-22T06:39:51.223Z,5.60
2018-12-22T06:42:19.571Z,5.60
2018-12-22T06:44:47.921Z,5.60
2018-12-22T06:47:16.269Z,5.60
2018-12-22T06:49:44.849Z,5.60
2018-12-22T06:52:13.212Z,5.60
2018-12-22T06:54:41.544Z,5.60
2018-12-22T06:57:09.880Z,5.60
2018-12-22T06:59:38.318Z,5.60
2018-12-22T07:02:06.669Z,5.60
2018-12-22T07:04:35.176Z,5.60
2018-12-22T07:07:03.709Z,5.60
2018-12-22T07:09:32.045Z,5.60
2018-12-22T07:12:00.399Z,5.60
2018-12-22T07:14:28.739Z,5.50
2018-12-22T07:16:57.073Z,5.50
2018-12-22T07:19:25.424Z,5.50
2018-12-22T07:21:53.861Z,5.50
2018-12-22T07:24:22.199Z,5.50
2018-12-22T07:26:50.570Z,5.50
2018-12-22T07:29:19.003Z,5.50
2018-12-22T07:31:47.335Z,5.50
2018-12-22T07:34:15.678Z,5.50
2018-12-22T07:36:44.132Z,5.60
2018-12-22T07:39:12.722Z,5.50
2018-12-22T07:41:41.192Z,5.50
2018-12-22T07:44:09.676Z,5.50
2018-12-22T07:46:38.034Z,5.50
2018-12-22T07:49:06.438Z,5.50
2018-12-22T07:51:34.789Z,5.50
2018-12-22T07:54:03.411Z,5.50
2018-12-22T07:56:31.752Z,5.50
2018-12-22T07:59:00.084Z,5.50
2018-12-22T08:01:28.432Z,5.50
2018-12-22T08:03:56.786Z,5.50
2018-12-22T08:06:25.286Z,5.50
2018-12-22T08:08:53.638Z,5.50
2018-12-22T08:11:22.248Z,5.50
2018-12-22T08:13:50.728Z,5.50
2018-12-22T08:16:19.069Z,5.50
2018-12-22T08:18:48.032Z,5.50
2018-12-22T08:21:16.788Z,5.50
2018-12-22T08:23:45.300Z,5.40
2018-12-22T08:26:13.653Z,5.50
2018-12-22T08:28:42.645Z,5.50
2018-12-22T08:31:11.013Z,5.50
2018-12-22T08:33:39.368Z,5.50
2018-12-22T08:36:07.814Z,5.50
2018-12-22T08:38:36.151Z,5.50
2018-12-22T08:41:04.576Z,5.50
2018-12-22T08:43:32.935Z,5.50
2018-12-22T08:46:01.403Z,5.50
2018-12-22T08:48:30.171Z,5.50
2018-12-22T08:50:58.638Z,5.50
2018-12-22T08:53:27.360Z,5.50
2018-12-22T08:55:55.715Z,5.50
2018-12-22T08:58:24.046Z,5.50
2018-12-22T09:00:52.597Z,5.50
2018-12-22T09:03:21.164Z,5.50
2018-12-22T09:05:49.506Z,5.50
2018-12-22T09:08:17.857Z,5.50
2018-12-22T09:10:46.811Z,5.50
2018-12-22T09:13:20.860Z,5.50
2018-12-22T09:15:45.543Z,5.50
2018-12-22T09:18:13.891Z,5.50
2018-12-22T09:20:42.325Z,5.50
2018-12-22T09:23:10.745Z,5.50
2018-12-22T09:25:39.263Z,5.50
2018-12-22T09:28:07.639Z,5.50
2018-12-22T09:30:35.989Z,5.50
2018-12-22T09:33:04.420Z,5.50
2018-12-22T09:35:32.780Z,5.50
2018-12-22T09:38:01.137Z,5.50
2018-12-22T09:40:29.486Z,5.50
2018-12-22T09:42:57.823Z,5.50
2018-12-22T09:45:26.164Z,5.50
2018-12-22T09:47:54.509Z,5.50
2018-12-22T09:50:22.978Z,5.50
2018-12-22T09:52:51.324Z,5.50
2018-12-22T09:55:19.663Z,5.50
2018-12-22T09:57:48.056Z,5.50
2018-12-22T10:00:16.913Z,5.50
2018-12-22T10:02:45.426Z,5.50
2018-12-22T10:05:13.781Z,5.50
2018-12-22T10:07:42.277Z,5.50
2018-12-22T10:10:12.377Z,5.50
2018-12-22T10:12:44.620Z,5.50
2018-12-22T10:15:16.901Z,5.50
2018-12-22T10:17:45.687Z,5.50
2018-12-22T10:20:14.149Z,5.50
2018-12-22T10:22:42.515Z,5.50
2018-12-22T10:25:11.265Z,5.50
2018-12-22T10:27:39.626Z,5.50
2018-12-22T10:30:10.211Z,5.50
2018-12-22T10:32:38.573Z,5.50
2018-12-22T10:35:14.926Z,5.50
2018-12-22T10:37:43.275Z,5.50
2018-12-22T10:40:11.635Z,5.50
2018-12-22T10:42:39.994Z,5.50
2018-12-22T10:45:08.894Z,5.50
2018-12-22T10:47:37.337Z,5.50
2018-12-22T10:50:06.633Z,5.50
2018-12-22T10:52:34.987Z,5.50
2018-12-22T10:55:04.098Z,5.50
2018-12-22T10:57:32.483Z,5.50
2018-12-22T11:00:00.853Z,5.50
2018-12-22T11:02:29.249Z,5.50
2018-12-22T11:04:57.788Z,5.50
2018-12-22T11:07:26.154Z,5.50
2018-12-22T11:09:54.496Z,5.50
2018-12-22T11:12:22.849Z,5.60
2018-12-22T11:14:51.199Z,5.60
2018-12-22T11:17:19.542Z,5.70
2018-12-22T11:19:47.987Z,5.70
2018-12-22T11:22:16.330Z,5.70
2018-12-22T11:24:44.671Z,5.70
2018-12-22T11:27:13.014Z,5.80
2018-12-22T11:29:41.691Z,5.80
2018-12-22T11:32:10.053Z,5.80
2018-12-22T11:34:38.488Z,5.70
2018-12-22T11:37:06.846Z,5.80
2018-12-22T11:39:35.265Z,5.80
2018-12-22T11:42:03.606Z,5.80
2018-12-22T11:44:31.971Z,5.80
2018-12-22T11:47:04.259Z,5.80
2018-12-22T11:49:32.731Z,5.80
2018-12-22T11:52:01.209Z,5.80
2018-12-22T11:54:29.573Z,5.80
2018-12-22T11:56:57.928Z,5.80
2018-12-22T11:59:26.340Z,5.80
2018-12-22T12:01:54.693Z,5.80
2018-12-22T12:04:23.037Z,5.80
2018-12-22T12:06:51.373Z,5.90
2018-12-22T12:09:19.861Z,5.90
2018-12-22T12:11:48.202Z,5.90
2018-12-22T12:14:16.739Z,5.90
2018-12-22T12:16:45.410Z,5.90
2018-12-22T12:19:14.986Z,5.80
2018-12-22T12:21:43.345Z,5.80
2018-12-22T12:24:11.713Z,5.80
2018-12-22T12:26:40.106Z,5.80
2018-12-22T12:29:08.476Z,5.80
2018-12-22T12:31:36.999Z,5.80
2018-12-22T12:34:05.369Z,5.80
2018-12-22T12:36:33.720Z,5.80
2018-12-22T12:39:02.081Z,5.80
2018-12-22T12:41:30.655Z,5.70
2018-12-22T12:43:59.015Z,5.80
2018-12-22T12:46:28.032Z,5.70
2018-12-22T12:48:56.393Z,5.80
2018-12-22T12:51:24.755Z,5.70
2018-12-22T12:53:53.176Z,5.70
2018-12-22T12:56:21.606Z,5.80
2018-12-22T12:58:49.950Z,5.80
2018-12-22T13:01:21.701Z,5.80
2018-12-22T13:03:53.686Z,5.70
2018-12-22T13:06:22.468Z,5.70
2018-12-22T13:08:50.971Z,5.70
2018-12-22T13:11:19.552Z,5.70
2018-12-22T13:13:47.973Z,5.70
2018-12-22T13:16:17.059Z,5.70
2018-12-22T13:18:45.431Z,5.70
2018-12-22T13:21:13.785Z,5.70
2018-12-22T13:23:42.144Z,5.70
2018-12-22T13:26:10.511Z,5.70
2018-12-22T13:28:38.862Z,5.70
2018-12-22T13:31:07.455Z,5.70
2018-12-22T13:33:36.244Z,5.70
2018-12-22T13:36:04.704Z,5.80
2018-12-22T13:38:33.324Z,6.20
2018-12-22T13:41:01.877Z,6.50
2018-12-22T13:43:30.236Z,6.60
2018-12-22T13:45:58.586Z,6.70
2018-12-22T13:48:27.027Z,6.90
2018-12-22T13:50:55.715Z,7.00
2018-12-22T13:53:24.356Z,7.00
2018-12-22T13:55:52.780Z,7.10
2018-12-22T13:58:21.154Z,7.10
2018-12-22T14:00:49.514Z,7.10
2018-12-22T14:03:18.070Z,7.20
2018-12-22T14:05:46.422Z,7.20
2018-12-22T14:08:14.788Z,7.20
2018-12-22T14:10:43.138Z,7.30
2018-12-22T14:13:11.506Z,7.20
2018-12-22T14:15:41.344Z,7.30
2018-12-22T14:18:23.895Z,7.30
2018-12-22T14:20:52.568Z,7.30
2018-12-22T14:23:23.364Z,7.30
2018-12-22T14:25:51.723Z,7.30
2018-12-22T14:28:20.276Z,7.30
2018-12-22T14:30:48.762Z,7.30
2018-12-22T14:33:17.101Z,7.30
2018-12-22T14:35:45.821Z,7.30
2018-12-22T14:38:14.164Z,7.30
2018-12-22T14:40:42.506Z,7.30
2018-12-22T14:43:10.915Z,7.30
2018-12-22T14:45:39.444Z,7.30
2018-12-22T14:48:07.793Z,7.30
2018-12-22T14:50:36.159Z,7.30
2018-12-22T14:53:04.521Z,7.30
2018-12-22T14:55:32.877Z,7.30
2018-12-22T14:58:02.242Z,7.30
2018-12-22T15:00:30.602Z,7.30
2018-12-22T15:02:58.960Z,7.30
2018-12-22T15:05:28.296Z,7.20
2018-12-22T15:07:56.672Z,7.20
2018-12-22T15:10:25.049Z,7.20
2018-12-22T15:12:53.409Z,7.20
2018-12-22T15:15:21.766Z,7.20
2018-12-22T15:17:50.199Z,7.20
2018-12-22T15:20:23.942Z,7.20
2018-12-22T15:22:52.298Z,7.20
2018-12-22T15:25:21.278Z,7.20
2018-12-22T15:27:49.799Z,7.20
2018-12-22T15:30:18.341Z,7.20
2018-12-22T15:32:54.481Z,7.10
2018-12-22T15:35:17.798Z,7.10
2018-12-22T15:37:46.358Z,7.10
2018-12-22T15:40:14.835Z,7.10
2018-12-22T15:42:43.458Z,7.10
2018-12-22T15:45:15.870Z,7.10
2018-12-22T15:47:45.657Z,7.10
2018-12-22T15:50:21.472Z,7.10
2018-12-22T15:52:49.978Z,7.10
2018-12-22T15:55:18.439Z,7.10
2018-12-22T15:57:46.895Z,7.10
2018-12-22T16:00:15.545Z,7.00
2018-12-22T16:02:52.829Z,6.40
2018-12-22T16:05:14.359Z,6.40
2018-12-22T16:07:42.709Z,6.60
2018-12-22T16:10:14.009Z,6.70
2018-12-22T16:12:42.621Z,6.80
2018-12-22T16:15:16.777Z,6.80
2018-12-22T16:17:45.131Z,6.90
2018-12-22T16:20:13.591Z,6.90
2018-12-22T16:22:53.340Z,6.90
2018-12-22T16:25:21.684Z,6.90
2018-12-22T16:27:51.687Z,6.90
2018-12-22T16:30:26.636Z,6.90
2018-12-22T16:33:01.581Z,6.90
2018-12-22T16:35:25.649Z,6.90
2018-12-22T16:37:54.123Z,6.80
2018-12-22T16:40:22.487Z,6.80
2018-12-22T16:42:50.864Z,6.80
2018-12-22T16:45:19.242Z,6.80
2018-12-22T16:47:48.571Z,6.80
2018-12-22T16:50:17.551Z,6.80
2018-12-22T16:52:45.913Z,6.80
2018-12-22T16:55:16.386Z,6.80
2018-12-22T16:58:00.909Z,6.80
2018-12-22T17:00:33.296Z,6.70
2018-12-22T17:03:10.414Z,6.70
2018-12-22T17:05:32.086Z,6.70
2018-12-22T17:08:00.449Z,6.70
2018-12-22T17:10:30.212Z,6.70
2018-12-22T17:12:58.755Z,6.70
2018-12-22T17:15:27.239Z,6.70
2018-12-22T17:17:55.612Z,6.70
2018-12-22T17:20:24.607Z,6.70
2018-12-22T17:23:18.708Z,6.70
2018-12-22T17:25:51.028Z,6.70
2018-12-22T17:28:27.920Z,6.70
2018-12-22T17:30:49.801Z,6.70
2018-12-22T17:33:19.040Z,6.70
2018-12-22T17:35:47.770Z,6.70
2018-12-22T17:38:16.132Z,6.60
2018-12-22T17:40:44.504Z,6.60
2018-12-22T17:43:13.035Z,6.60
2018-12-22T17:45:41.569Z,6.60
2018-12-22T17:48:09.936Z,6.60
2018-12-22T17:50:38.290Z,6.60
2018-12-22T17:53:06.650Z,6.50
2018-12-22T17:55:35.023Z,6.60
2018-12-22T17:58:03.842Z,6.50
2018-12-22T18:00:32.252Z,6.50
2018-12-22T18:03:01.753Z,6.50
2018-12-22T18:05:30.435Z,6.50
2018-12-22T18:07:59.941Z,6.50
2018-12-22T18:10:28.327Z,6.50
2018-12-22T18:12:57.317Z,6.50
2018-12-22T18:15:26.213Z,6.40
2018-12-22T18:17:54.697Z,6.50
2018-12-22T18:20:23.546Z,6.50
2018-12-22T18:22:52.682Z,6.50
2018-12-22T18:25:21.872Z,6.50
2018-12-22T18:27:52.096Z,6.40
2018-12-22T18:30:20.468Z,6.40
2018-12-22T18:32:49.056Z,6.50
2018-12-22T18:35:17.442Z,6.40
2018-12-22T18:37:45.929Z,6.40
2018-12-22T18:40:17.777Z,6.40
2018-12-22T18:42:47.019Z,6.40
2018-12-22T18:45:15.386Z,6.40
2018-12-22T18:47:44.255Z,6.40
2018-12-22T18:50:16.283Z,6.40
2018-12-22T18:52:44.819Z,6.40
2018-12-22T18:55:13.283Z,6.30
2018-12-22T18:57:42.024Z,6.30
2018-12-22T19:00:15.398Z,6.40
2018-12-22T19:02:43.840Z,6.30
2018-12-22T19:05:12.957Z,6.30
2018-12-22T19:07:41.437Z,6.30
2018-12-22T19:10:20.991Z,6.30
2018-12-22T19:12:49.437Z,6.30
2018-12-22T19:15:17.784Z,6.30
2018-12-22T19:17:46.119Z,6.30
2018-12-22T19:20:18.069Z,6.30
2018-12-22T19:22:46.468Z,6.30
2018-12-22T19:25:14.909Z,6.30
2018-12-22T19:27:43.291Z,6.30
2018-12-22T19:30:11.645Z,6.30
2018-12-22T19:32:40.111Z,6.30
2018-12-22T19:35:08.520Z,6.30
2018-12-22T19:37:37.108Z,6.30
2018-12-22T19:40:05.684Z,6.30
2018-12-22T19:42:34.137Z,6.30
2018-12-22T19:45:02.895Z,6.20
2018-12-22T19:47:31.273Z,6.20
2018-12-22T19:50:00.154Z,6.20
2018-12-22T19:52:28.583Z,6.20
2018-12-22T19:54:57.387Z,6.20
2018-12-22T19:57:25.739Z,6.20
2018-12-22T19:59:54.106Z,6.20
2018-12-22T20:02:22.462Z,6.20
2018-12-22T20:04:51.050Z,6.20
2018-12-22T20:07:19.658Z,6.20
2018-12-22T20:09:48.007Z,6.20
2018-12-22T20:12:16.909Z,6.20
2018-12-22T20:14:45.263Z,6.20
2018-12-22T20:17:13.928Z,6.20
2018-12-22T20:19:42.290Z,6.10
2018-12-22T20:22:10.673Z,6.10
2018-12-22T20:24:39.024Z,6.10
2018-12-22T20:27:07.760Z,6.10
2018-12-22T20:29:36.325Z,6.10
2018-12-22T20:32:04.912Z,6.10
2018-12-22T20:34:33.598Z,6.10
2018-12-22T20:37:01.950Z,6.10
2018-12-22T20:39:30.310Z,6.10
2018-12-22T20:41:58.705Z,6.10
2018-12-22T20:44:27.208Z,6.10
2018-12-22T20:46:55.594Z,6.10
2018-12-22T20:49:24.084Z,6.10
2018-12-22T20:51:52.460Z,6.10
2018-12-22T20:54:21.039Z,6.10
2018-12-22T20:56:49.396Z,6.10
2018-12-22T20:59:17.898Z,6.10
2018-12-22T21:01:46.606Z,6.10
2018-12-22T21:04:19.756Z,6.10
2018-12-22T21:06:45.504Z,6.00
2018-12-22T21:09:14.547Z,6.00
2018-12-22T21:11:42.914Z,6.00
2018-12-22T21:14:11.290Z,6.00
2018-12-22T21:16:40.025Z,6.00
2018-12-22T21:19:08.396Z,6.00
2018-12-22T21:21:36.770Z,6.00
2018-12-22T21:24:05.189Z,6.00
2018-12-22T21:26:33.687Z,5.90
2018-12-22T21:29:02.086Z,5.90
2018-12-22T21:31:30.699Z,6.00
2018-12-22T21:33:59.055Z,6.00
2018-12-22T21:36:27.565Z,6.00
2018-12-22T21:38:56.041Z,6.00
2018-12-22T21:41:24.403Z,5.90
2018-12-22T21:43:52.897Z,5.90
2018-12-22T21:46:21.510Z,5.90
2018-12-22T21:48:49.984Z,5.90
2018-12-22T21:51:18.918Z,5.90
2018-12-22T21:53:47.293Z,5.90
2018-12-22T21:56:16.146Z,5.90
2018-12-22T21:58:44.829Z,5.90
2018-12-22T22:01:13.409Z,5.90
2018-12-22T22:03:41.872Z,5.90
2018-12-22T22:06:10.242Z,5.90
2018-12-22T22:08:38.625Z,5.80
2018-12-22T22:11:07.017Z,5.80
2018-12-22T22:13:35.368Z,5.90
2018-12-22T22:16:03.716Z,5.90
2018-12-22T22:18:32.069Z,5.90
2018-12-22T22:21:00.623Z,5.90
2018-12-22T22:23:29.012Z,5.90
2018-12-22T22:25:57.491Z,5.90
2018-12-22T22:28:25.855Z,5.90
2018-12-22T22:30:55.269Z,5.80
2018-12-22T22:33:23.626Z,5.80
2018-12-22T22:35:52.025Z,5.90
2018-12-22T22:38:20.503Z,5.80
2018-12-22T22:40:48.885Z,5.80
2018-12-22T22:43:17.570Z,5.80
2018-12-22T22:45:46.054Z,5.80
2018-12-22T22:48:14.668Z,5.80
2018-12-22T22:50:43.034Z,5.80
2018-12-22T22:53:11.400Z,5.80
2018-12-22T22:55:39.928Z,5.80
2018-12-22T22:58:08.353Z,5.80
2018-12-22T23:00:36.722Z,5.90
2018-12-22T23:03:05.084Z,5.90
2018-12-22T23:05:34.302Z,5.90
2018-12-22T23:08:02.650Z,5.80
2018-12-22T23:10:30.996Z,5.80
2018-12-22T23:13:00.170Z,5.80
2018-12-22T23:15:28.530Z,5.80
2018-12-22T23:17:56.896Z,5.80
2018-12-22T23:20:25.252Z,5.80
2018-12-22T23:22:53.611Z,5.80
2018-12-22T23:25:22.148Z,5.80
2018-12-22T23:27:50.516Z,5.80
2018-12-22T23:30:19.008Z,5.80
2018-12-22T23:32:47.542Z,5.80
2018-12-22T23:35:15.888Z,5.80
2018-12-22T23:37:44.448Z,5.80
2018-12-22T23:40:13.058Z,5.80
2018-12-22T23:42:41.597Z,5.80
2018-12-22T23:45:09.994Z,5.80
2018-12-22T23:47:38.360Z,5.80
2018-12-22T23:50:07.051Z,5.80
2018-12-22T23:52:35.498Z,5.80
2018-12-22T23:55:04.830Z,5.80
2018-12-22T23:57:33.186Z,5.80
